createdAt,value
2023-05-10T00:00:02.461Z,100699.81
2023-05-10T00:02:39.860Z,100699.19
2023-05-10T00:05:07.159Z,100688.53
2023-05-10T00:07:33.704Z,100694.59
2023-05-10T00:10:00.209Z,100686.84
2023-05-10T00:12:26.708Z,100687.16
2023-05-10T00:14:53.236Z,100686.47
2023-05-10T00:17:19.742Z,100676.97
2023-05-10T00:19:46.263Z,100677.38
2023-05-10T00:22:12.770Z,100677.81
2023-05-10T00:24:39.267Z,100677.00
2023-05-10T00:27:06.041Z,100670.78
2023-05-10T00:29:32.810Z,100663.28
2023-05-10T00:31:59.414Z,100663.00
2023-05-10T00:34:25.988Z,100658.66
2023-05-10T00:36:52.476Z,100665.72
2023-05-10T00:39:18.993Z,100655.59
2023-05-10T00:41:46.110Z,100660.72
2023-05-10T00:44:12.768Z,100658.41
2023-05-10T00:46:39.546Z,100667.03
2023-05-10T00:49:06.580Z,100658.38
2023-05-10T00:51:33.141Z,100652.97
2023-05-10T00:53:59.705Z,100655.22
2023-05-10T00:56:26.705Z,100649.88
2023-05-10T00:58:53.393Z,100643.25
2023-05-10T01:01:20.579Z,100646.75
2023-05-10T01:03:47.889Z,100643.94
2023-05-10T01:06:15.775Z,100636.88
2023-05-10T01:08:42.351Z,100644.00
2023-05-10T01:11:08.931Z,100632.63
2023-05-10T01:13:40.379Z,100636.09
2023-05-10T01:16:07.859Z,100636.66
2023-05-10T01:18:37.203Z,100627.13
2023-05-10T01:21:20.623Z,100631.97
2023-05-10T01:24:00.525Z,100634.63
2023-05-10T01:26:43.627Z,100637.22
2023-05-10T01:29:44.781Z,100631.34
2023-05-10T01:32:21.161Z,100630.31
2023-05-10T01:34:56.770Z,100640.66
2023-05-10T01:37:32.912Z,100621.03
2023-05-10T01:40:06.554Z,100624.31
2023-05-10T01:42:40.414Z,100625.38
2023-05-10T01:45:15.169Z,100627.44
2023-05-10T01:47:43.847Z,100625.06
2023-05-10T01:50:19.373Z,100630.56
2023-05-10T01:52:50.873Z,100624.72
2023-05-10T01:55:19.555Z,100622.78
2023-05-10T01:57:47.482Z,100614.97
2023-05-10T02:00:15.681Z,100622.78
2023-05-10T02:02:46.174Z,100617.81
2023-05-10T02:05:14.277Z,100626.13
2023-05-10T02:07:41.908Z,100623.88
2023-05-10T02:10:09.263Z,100619.91
2023-05-10T02:12:42.433Z,100614.38
2023-05-10T02:15:09.161Z,100620.00
2023-05-10T02:17:37.307Z,100616.81
2023-05-10T02:20:07.024Z,100620.31
2023-05-10T02:22:33.853Z,100613.75
2023-05-10T02:25:01.967Z,100605.50
2023-05-10T02:27:28.956Z,100614.50
2023-05-10T02:29:55.810Z,100607.44
2023-05-10T02:32:23.585Z,100608.28
2023-05-10T02:34:53.125Z,100610.25
2023-05-10T02:37:21.156Z,100616.88
2023-05-10T02:39:51.942Z,100604.34
2023-05-10T02:42:19.963Z,100611.81
2023-05-10T02:44:49.155Z,100598.56
2023-05-10T02:47:15.799Z,100602.31
2023-05-10T02:49:42.733Z,100601.44
2023-05-10T02:52:10.201Z,100606.53
2023-05-10T02:54:46.055Z,100600.59
2023-05-10T02:57:17.177Z,100602.22
2023-05-10T02:59:44.074Z,100608.88
2023-05-10T03:02:11.305Z,100613.25
2023-05-10T03:04:37.871Z,100606.66
2023-05-10T03:07:04.648Z,100611.75
2023-05-10T03:09:32.262Z,100605.06
2023-05-10T03:12:28.900Z,100613.34
2023-05-10T03:15:04.857Z,100603.56
2023-05-10T03:17:48.370Z,100609.81
2023-05-10T03:20:32.991Z,100600.06
2023-05-10T03:23:06.084Z,100593.84
2023-05-10T03:25:33.111Z,100595.09
2023-05-10T03:28:02.385Z,100595.91
2023-05-10T03:30:29.210Z,100605.31
2023-05-10T03:32:55.822Z,100592.34
2023-05-10T03:35:22.373Z,100598.56
2023-05-10T03:37:49.658Z,100604.88
2023-05-10T03:40:17.050Z,100595.09
2023-05-10T03:42:44.229Z,100597.53
2023-05-10T03:45:11.698Z,100591.69
2023-05-10T03:47:38.292Z,100597.88
2023-05-10T03:50:05.458Z,100593.59
2023-05-10T03:52:33.127Z,100591.69
2023-05-10T03:54:59.660Z,100594.41
2023-05-10T03:57:26.213Z,100591.69
2023-05-10T03:59:52.734Z,100592.09
2023-05-10T04:02:19.288Z,100590.84
2023-05-10T04:04:46.081Z,100593.25
2023-05-10T04:07:12.613Z,100591.63
2023-05-10T04:09:39.846Z,100586.88
2023-05-10T04:12:07.989Z,100581.44
2023-05-10T04:14:35.483Z,100583.75
2023-05-10T04:17:02.242Z,100585.25
2023-05-10T04:19:32.185Z,100582.09
2023-05-10T04:21:59.312Z,100586.84
2023-05-10T04:24:25.824Z,100582.13
2023-05-10T04:26:52.415Z,100580.97
2023-05-10T04:29:18.964Z,100585.69
2023-05-10T04:31:45.489Z,100580.63
2023-05-10T04:34:12.084Z,100588.00
2023-05-10T04:36:38.687Z,100580.13
2023-05-10T04:39:05.264Z,100569.28
2023-05-10T04:41:31.810Z,100573.97
2023-05-10T04:43:58.365Z,100567.34
2023-05-10T04:46:24.891Z,100565.69
2023-05-10T04:48:51.512Z,100567.16
2023-05-10T04:51:18.017Z,100557.66
2023-05-10T04:53:51.129Z,100570.59
2023-05-10T04:56:24.288Z,100570.63
2023-05-10T04:58:50.796Z,100577.97
2023-05-10T05:01:17.303Z,100566.53
2023-05-10T05:03:43.894Z,100570.00
2023-05-10T05:06:10.498Z,100573.44
2023-05-10T05:08:37.040Z,100578.63
2023-05-10T05:11:03.542Z,100580.47
2023-05-10T05:13:30.429Z,100576.53
2023-05-10T05:15:57.099Z,100574.97
2023-05-10T05:18:23.637Z,100577.63
2023-05-10T05:20:50.371Z,100582.31
2023-05-10T05:23:17.403Z,100575.16
2023-05-10T05:25:43.945Z,100562.91
2023-05-10T05:28:10.424Z,100566.75
2023-05-10T05:30:36.939Z,100565.94
2023-05-10T05:33:03.651Z,100566.88
2023-05-10T05:35:30.223Z,100564.66
2023-05-10T05:37:57.195Z,100563.13
2023-05-10T05:40:23.848Z,100562.16
2023-05-10T05:42:50.744Z,100561.16
2023-05-10T05:45:17.581Z,100555.41
2023-05-10T05:47:44.368Z,100556.50
2023-05-10T05:50:10.987Z,100556.03
2023-05-10T05:52:37.566Z,100563.75
2023-05-10T05:55:04.643Z,100568.47
2023-05-10T05:57:31.238Z,100561.38
2023-05-10T05:59:57.775Z,100560.75
2023-05-10T06:02:24.348Z,100557.88
2023-05-10T06:04:51.404Z,100563.63
2023-05-10T06:07:17.933Z,100567.25
2023-05-10T06:09:44.439Z,100569.19
2023-05-10T06:12:11.010Z,100565.72
2023-05-10T06:14:37.550Z,100577.78
2023-05-10T06:17:06.163Z,100573.31
2023-05-10T06:19:33.816Z,100571.59
2023-05-10T06:22:00.313Z,100560.03
2023-05-10T06:24:28.135Z,100564.69
2023-05-10T06:26:54.643Z,100564.34
2023-05-10T06:29:21.132Z,100570.56
2023-05-10T06:31:47.740Z,100565.31
2023-05-10T06:34:14.520Z,100567.75
2023-05-10T06:36:41.045Z,100565.47
2023-05-10T06:41:48.489Z,100578.63
2023-05-10T06:44:14.985Z,100570.56
2023-05-10T06:46:42.574Z,100575.41
2023-05-10T06:49:09.465Z,100591.31
2023-05-10T06:51:36.259Z,100572.31
2023-05-10T06:54:02.917Z,100569.50
2023-05-10T06:56:29.497Z,100569.97
2023-05-10T06:58:56.827Z,100562.66
2023-05-10T07:01:23.404Z,100574.13
2023-05-10T07:03:49.983Z,100571.09
2023-05-10T07:06:29.389Z,100570.88
2023-05-10T07:08:59.690Z,100566.19
2023-05-10T07:11:26.193Z,100562.59
2023-05-10T07:13:52.678Z,100561.69
2023-05-10T07:16:19.291Z,100555.19
2023-05-10T07:18:45.894Z,100567.84
2023-05-10T07:21:12.526Z,100566.44
2023-05-10T07:23:39.047Z,100548.38
2023-05-10T07:26:05.728Z,100553.28
2023-05-10T07:28:32.260Z,100541.47
2023-05-10T07:30:59.076Z,100546.91
2023-05-10T07:33:25.650Z,100548.78
2023-05-10T07:35:52.657Z,100553.59
2023-05-10T07:38:19.163Z,100559.66
2023-05-10T07:40:45.669Z,100551.41
2023-05-10T07:43:12.187Z,100548.44
2023-05-10T07:45:38.752Z,100554.41
2023-05-10T07:48:05.390Z,100551.16
2023-05-10T07:50:31.912Z,100548.56
2023-05-10T07:52:58.769Z,100559.25
2023-05-10T07:55:25.589Z,100558.34
2023-05-10T07:57:52.199Z,100562.16
2023-05-10T08:00:20.288Z,100566.00
2023-05-10T08:02:47.519Z,100568.91
2023-05-10T08:05:14.526Z,100570.31
2023-05-10T08:07:41.393Z,100571.31
2023-05-10T08:10:08.741Z,100571.97
2023-05-10T08:12:35.284Z,100556.19
2023-05-10T08:15:01.801Z,100553.34
2023-05-10T08:17:28.409Z,100557.38
2023-05-10T08:19:55.095Z,100559.84
2023-05-10T08:22:21.718Z,100550.31
2023-05-10T08:24:48.227Z,100566.97
2023-05-10T08:27:14.819Z,100563.72
2023-05-10T08:29:49.667Z,100555.63
2023-05-10T08:32:17.028Z,100558.06
2023-05-10T08:34:43.634Z,100564.09
2023-05-10T08:37:11.504Z,100567.41
2023-05-10T08:39:38.329Z,100564.50
2023-05-10T08:42:05.866Z,100578.34
2023-05-10T08:44:33.432Z,100568.28
2023-05-10T08:47:00.803Z,100574.69
2023-05-10T08:49:28.593Z,100567.41
2023-05-10T08:51:56.867Z,100567.28
2023-05-10T08:54:23.980Z,100565.88
2023-05-10T08:56:50.591Z,100587.66
2023-05-10T08:59:17.293Z,100573.22
2023-05-10T09:01:46.472Z,100564.13
2023-05-10T09:04:13.717Z,100571.47
2023-05-10T09:06:40.488Z,100589.97
2023-05-10T09:09:07.450Z,100576.75
2023-05-10T09:11:33.945Z,100583.56
2023-05-10T09:14:00.747Z,100574.75
2023-05-10T09:16:27.307Z,100580.59
2023-05-10T09:18:53.932Z,100576.50
2023-05-10T09:21:21.597Z,100577.19
2023-05-10T09:23:50.980Z,100581.19
2023-05-10T09:26:18.401Z,100578.44
2023-05-10T09:28:56.944Z,100574.28
2023-05-10T09:31:24.630Z,100574.63
2023-05-10T09:33:52.111Z,100577.00
2023-05-10T09:36:18.837Z,100580.03
2023-05-10T09:38:53.776Z,100581.75
2023-05-10T09:41:22.767Z,100582.84
2023-05-10T09:43:51.641Z,100575.22
2023-05-10T09:46:18.261Z,100586.69
2023-05-10T09:48:46.643Z,100580.41
2023-05-10T09:51:23.743Z,100583.06
2023-05-10T09:54:10.049Z,100590.75
2023-05-10T09:56:38.487Z,100587.59
2023-05-10T09:59:05.662Z,100585.97
2023-05-10T10:01:32.464Z,100589.00
2023-05-10T10:03:59.307Z,100579.25
2023-05-10T10:06:30.122Z,100589.94
2023-05-10T10:08:57.558Z,100579.53
2023-05-10T10:11:24.689Z,100585.22
2023-05-10T10:13:51.239Z,100591.38
2023-05-10T10:16:18.155Z,100593.50
2023-05-10T10:18:44.732Z,100579.69
2023-05-10T10:21:11.445Z,100572.91
2023-05-10T10:23:37.943Z,100570.88
2023-05-10T10:26:05.438Z,100560.31
2023-05-10T10:28:38.604Z,100570.50
2023-05-10T10:31:34.651Z,100570.41
2023-05-10T10:34:05.028Z,100564.69
2023-05-10T10:36:31.520Z,100565.06
2023-05-10T10:39:02.340Z,100567.38
2023-05-10T10:41:41.845Z,100572.78
2023-05-10T10:44:26.757Z,100563.59
2023-05-10T10:47:12.499Z,100558.41
2023-05-10T10:49:41.872Z,100567.50
2023-05-10T10:52:34.505Z,100566.75
2023-05-10T10:55:07.701Z,100554.56
2023-05-10T10:57:56.033Z,100567.03
2023-05-10T11:00:26.780Z,100570.16
2023-05-10T11:03:15.798Z,100559.69
2023-05-10T11:05:46.417Z,100569.66
2023-05-10T11:08:14.050Z,100565.31
2023-05-10T11:10:49.506Z,100557.97
2023-05-10T11:13:16.110Z,100561.56
2023-05-10T11:15:51.183Z,100557.53
2023-05-10T11:18:31.058Z,100558.84
2023-05-10T11:21:03.733Z,100566.00
2023-05-10T11:23:40.232Z,100569.59
2023-05-10T11:26:10.397Z,100545.59
2023-05-10T11:28:42.178Z,100553.81
2023-05-10T11:31:08.812Z,100544.28
2023-05-10T11:33:52.125Z,100550.34
2023-05-10T11:36:20.680Z,100550.94
2023-05-10T11:38:47.832Z,100552.97
2023-05-10T11:41:14.911Z,100545.72
2023-05-10T11:43:42.090Z,100548.63
2023-05-10T11:46:11.384Z,100548.72
2023-05-10T11:48:39.650Z,100553.34
2023-05-10T11:51:06.233Z,100545.81
2023-05-10T11:53:33.878Z,100550.97
2023-05-10T11:56:12.951Z,100566.06
2023-05-10T11:58:40.686Z,100554.69
2023-05-10T12:01:08.683Z,100544.28
2023-05-10T12:03:35.688Z,100544.09
2023-05-10T12:06:03.357Z,100550.84
2023-05-10T12:08:31.761Z,100546.63
2023-05-10T12:11:07.180Z,100551.09
2023-05-10T12:13:33.688Z,100551.16
2023-05-10T12:16:00.365Z,100550.84
2023-05-10T12:18:26.983Z,100569.50
2023-05-10T12:20:57.105Z,100574.09
2023-05-10T12:23:23.610Z,100558.78
2023-05-10T12:25:50.165Z,100545.84
2023-05-10T12:28:20.163Z,100557.72
2023-05-10T12:30:46.678Z,100549.94
2023-05-10T12:33:15.983Z,100556.88
2023-05-10T12:35:47.702Z,100563.16
2023-05-10T12:38:46.780Z,100555.13
2023-05-10T12:41:16.702Z,100563.97
2023-05-10T12:43:43.435Z,100564.22
2023-05-10T12:46:11.334Z,100559.19
2023-05-10T12:48:38.623Z,100563.56
2023-05-10T12:51:06.333Z,100565.84
2023-05-10T12:53:33.048Z,100565.41
2023-05-10T12:55:59.562Z,100579.66
2023-05-10T12:58:34.876Z,100564.50
2023-05-10T13:01:02.051Z,100564.50
2023-05-10T13:03:28.632Z,100556.03
2023-05-10T13:05:55.127Z,100573.19
2023-05-10T13:08:21.667Z,100558.72
2023-05-10T13:10:48.236Z,100553.06
2023-05-10T13:13:15.133Z,100566.44
2023-05-10T13:15:41.636Z,100568.34
2023-05-10T13:18:08.152Z,100561.19
2023-05-10T13:20:34.730Z,100561.53
2023-05-10T13:23:01.324Z,100566.19
2023-05-10T13:25:27.922Z,100548.91
2023-05-10T13:27:54.451Z,100541.72
2023-05-10T13:30:21.505Z,100553.00
2023-05-10T13:32:48.120Z,100550.78
2023-05-10T13:35:14.628Z,100552.41
2023-05-10T13:37:41.145Z,100543.44
2023-05-10T13:40:08.098Z,100557.84
2023-05-10T13:42:34.678Z,100541.09
2023-05-10T13:45:02.736Z,100544.34
2023-05-10T13:47:29.396Z,100542.47
2023-05-10T13:49:56.285Z,100545.94
2023-05-10T13:52:22.799Z,100550.34
2023-05-10T13:54:49.425Z,100543.84
2023-05-10T13:57:17.688Z,100544.38
2023-05-10T13:59:44.245Z,100540.25
2023-05-10T14:02:13.910Z,100542.50
2023-05-10T14:04:40.447Z,100543.25
2023-05-10T14:07:06.986Z,100540.56
2023-05-10T14:09:33.509Z,100542.94
2023-05-10T14:12:00.057Z,100542.03
2023-05-10T14:14:26.938Z,100533.31
2023-05-10T14:16:53.486Z,100543.72
2023-05-10T14:19:20.133Z,100539.06
2023-05-10T14:21:46.768Z,100551.47
2023-05-10T14:24:13.327Z,100540.41
2023-05-10T14:26:39.847Z,100541.63
2023-05-10T14:29:06.370Z,100545.09
2023-05-10T14:31:32.954Z,100533.13
2023-05-10T14:34:00.233Z,100544.56
2023-05-10T14:36:26.905Z,100532.56
2023-05-10T14:38:53.487Z,100530.00
2023-05-10T14:41:20.051Z,100538.75
2023-05-10T14:43:46.968Z,100535.69
2023-05-10T14:46:13.588Z,100532.38
2023-05-10T14:48:40.446Z,100529.53
2023-05-10T14:51:07.620Z,100534.19
2023-05-10T14:53:34.510Z,100536.75
2023-05-10T14:56:02.326Z,100535.88
2023-05-10T14:58:28.924Z,100534.66
2023-05-10T15:00:55.476Z,100544.00
2023-05-10T15:03:22.399Z,100530.16
2023-05-10T15:05:49.343Z,100541.31
2023-05-10T15:08:15.849Z,100534.69
2023-05-10T15:10:42.598Z,100544.72
2023-05-10T15:13:09.086Z,100544.63
2023-05-10T15:15:35.660Z,100539.75
2023-05-10T15:18:02.570Z,100544.75
2023-05-10T15:20:29.119Z,100547.66
2023-05-10T15:22:55.637Z,100547.81
2023-05-10T15:25:22.249Z,100547.06
2023-05-10T15:27:48.742Z,100543.72
2023-05-10T15:30:15.412Z,100544.66
2023-05-10T15:32:41.957Z,100554.13
2023-05-10T15:35:09.357Z,100557.22
2023-05-10T15:37:35.892Z,100549.25
2023-05-10T15:40:05.315Z,100553.56
2023-05-10T15:42:32.802Z,100545.34
2023-05-10T15:44:59.598Z,100554.69
2023-05-10T15:47:26.907Z,100546.94
2023-05-10T15:49:53.506Z,100548.25
2023-05-10T15:52:21.531Z,100547.28
2023-05-10T15:54:48.235Z,100551.13
2023-05-10T15:57:14.794Z,100554.63
2023-05-10T15:59:41.577Z,100555.81
2023-05-10T16:02:08.784Z,100563.19
2023-05-10T16:04:35.366Z,100557.97
2023-05-10T16:07:02.081Z,100565.34
2023-05-10T16:09:28.650Z,100575.53
2023-05-10T16:11:55.239Z,100571.34
2023-05-10T16:14:22.954Z,100580.28
2023-05-10T16:16:49.789Z,100587.41
2023-05-10T16:19:16.365Z,100585.97
2023-05-10T16:21:42.981Z,100595.03
2023-05-10T16:24:09.584Z,100589.72
2023-05-10T16:26:40.817Z,100591.19
2023-05-10T16:29:08.510Z,100598.16
2023-05-10T16:31:35.323Z,100598.34
2023-05-10T16:34:02.032Z,100609.34
2023-05-10T16:36:29.581Z,100599.06
2023-05-10T16:38:56.560Z,100604.16
2023-05-10T16:41:23.136Z,100609.09
2023-05-10T16:43:50.166Z,100613.91
2023-05-10T16:46:16.765Z,100618.25
2023-05-10T16:48:43.326Z,100620.00
2023-05-10T16:51:09.894Z,100624.28
2023-05-10T16:53:36.448Z,100632.53
2023-05-10T16:56:03.351Z,100624.56
2023-05-10T16:58:29.878Z,100630.00
2023-05-10T17:00:56.495Z,100628.59
2023-05-10T17:03:23.433Z,100634.03
2023-05-10T17:05:50.095Z,100634.88
2023-05-10T17:08:16.832Z,100641.31
2023-05-10T17:10:43.431Z,100636.38
2023-05-10T17:13:10.657Z,100647.16
2023-05-10T17:15:38.514Z,100650.28
2023-05-10T17:18:05.624Z,100649.28
2023-05-10T17:20:32.341Z,100652.19
2023-05-10T17:22:59.235Z,100652.91
2023-05-10T17:25:25.735Z,100654.00
2023-05-10T17:27:52.276Z,100656.53
2023-05-10T17:30:24.274Z,100654.72
2023-05-10T17:32:50.886Z,100667.56
2023-05-10T17:35:17.661Z,100665.19
2023-05-10T17:37:44.852Z,100670.94
2023-05-10T17:40:11.649Z,100673.56
2023-05-10T17:42:38.193Z,100668.78
2023-05-10T17:45:04.906Z,100674.97
2023-05-10T17:47:31.565Z,100679.31
2023-05-10T17:49:58.365Z,100682.41
2023-05-10T17:52:24.880Z,100681.47
2023-05-10T17:54:52.114Z,100681.19
2023-05-10T17:57:18.670Z,100681.19
2023-05-10T17:59:45.285Z,100687.56
2023-05-10T18:02:11.823Z,100696.06
2023-05-10T18:04:40.227Z,100700.38
2023-05-10T18:07:07.888Z,100696.38
2023-05-10T18:09:34.488Z,100704.59
2023-05-10T18:12:04.018Z,100701.94
2023-05-10T18:14:40.058Z,100700.88
2023-05-10T18:17:07.694Z,100708.56
2023-05-10T18:19:34.470Z,100705.19
2023-05-10T18:22:01.045Z,100709.19
2023-05-10T18:24:38.316Z,100712.44
2023-05-10T18:27:06.670Z,100711.19
2023-05-10T18:29:33.445Z,100713.38
2023-05-10T18:31:59.975Z,100715.34
2023-05-10T18:34:26.896Z,100719.69
2023-05-10T18:36:53.426Z,100721.38
2023-05-10T18:39:20.056Z,100724.44
2023-05-10T18:41:46.580Z,100733.41
2023-05-10T18:44:13.123Z,100729.56
2023-05-10T18:46:39.770Z,100736.47
2023-05-10T18:49:08.357Z,100741.41
2023-05-10T18:51:34.969Z,100739.34
2023-05-10T18:54:01.515Z,100745.25
2023-05-10T18:56:28.217Z,100750.16
2023-05-10T18:58:54.809Z,100747.31
2023-05-10T19:01:21.438Z,100746.38
2023-05-10T19:03:48.044Z,100752.97
2023-05-10T19:06:14.554Z,100754.78
2023-05-10T19:08:41.104Z,100749.06
2023-05-10T19:11:07.663Z,100759.38
2023-05-10T19:13:34.346Z,100762.09
2023-05-10T19:16:12.818Z,100770.56
2023-05-10T19:18:39.904Z,100764.50
2023-05-10T19:21:09.612Z,100769.50
2023-05-10T19:23:38.679Z,100768.09
2023-05-10T19:26:05.692Z,100781.66
2023-05-10T19:28:32.231Z,100778.22
2023-05-10T19:30:58.882Z,100785.00
2023-05-10T19:33:25.562Z,100774.81
2023-05-10T19:35:52.802Z,100774.81
2023-05-10T19:38:23.426Z,100779.31
2023-05-10T19:40:50.890Z,100784.66
2023-05-10T19:43:17.755Z,100780.47
2023-05-10T19:45:44.344Z,100780.94
2023-05-10T19:48:11.111Z,100789.38
2023-05-10T19:50:38.352Z,100793.50
2023-05-10T19:53:04.878Z,100795.19
2023-05-10T19:55:32.300Z,100796.66
2023-05-10T19:58:00.602Z,100802.69
2023-05-10T20:00:27.705Z,100800.03
2023-05-10T20:02:54.964Z,100801.84
2023-05-10T20:05:22.116Z,100812.78
2023-05-10T20:07:48.843Z,100808.72
2023-05-10T20:10:16.621Z,100807.28
2023-05-10T20:12:51.036Z,100807.50
2023-05-10T20:15:20.086Z,100815.28
2023-05-10T20:17:46.956Z,100814.16
2023-05-10T20:20:15.996Z,100821.47
2023-05-10T20:22:49.542Z,100823.00
2023-05-10T20:25:16.944Z,100819.03
2023-05-10T20:27:43.645Z,100815.81
2023-05-10T20:30:10.803Z,100815.84
2023-05-10T20:32:37.905Z,100824.16
2023-05-10T20:35:05.660Z,100820.72
2023-05-10T20:37:32.190Z,100822.59
2023-05-10T20:39:58.767Z,100824.25
2023-05-10T20:42:25.392Z,100819.69
2023-05-10T20:44:51.985Z,100824.09
2023-05-10T20:47:18.649Z,100827.53
2023-05-10T20:49:45.165Z,100824.88
2023-05-10T20:52:11.754Z,100821.66
2023-05-10T20:54:38.229Z,100826.09
2023-05-10T20:57:04.810Z,100829.97
2023-05-10T20:59:31.309Z,100828.63
2023-05-10T21:01:58.106Z,100817.78
2023-05-10T21:04:25.727Z,100823.31
2023-05-10T21:06:53.077Z,100828.09
2023-05-10T21:09:19.705Z,100827.66
2023-05-10T21:11:46.270Z,100829.84
2023-05-10T21:14:12.769Z,100828.41
2023-05-10T21:16:39.373Z,100832.16
2023-05-10T21:19:07.150Z,100838.59
2023-05-10T21:21:33.951Z,100834.59
2023-05-10T21:24:00.516Z,100844.13
2023-05-10T21:26:27.064Z,100835.25
2023-05-10T21:28:53.577Z,100841.03
2023-05-10T21:31:20.353Z,100836.50
2023-05-10T21:33:47.082Z,100838.53
2023-05-10T21:36:13.827Z,100830.78
2023-05-10T21:38:41.009Z,100832.78
2023-05-10T21:41:08.027Z,100833.41
2023-05-10T21:43:34.721Z,100831.28
2023-05-10T21:46:01.540Z,100831.94
2023-05-10T21:48:28.167Z,100839.56
2023-05-10T21:50:54.770Z,100836.56
2023-05-10T21:53:22.307Z,100836.91
2023-05-10T21:55:49.063Z,100840.25
2023-05-10T21:58:15.580Z,100838.38
2023-05-10T22:00:42.302Z,100837.50
2023-05-10T22:03:08.934Z,100845.69
2023-05-10T22:05:35.638Z,100845.94
2023-05-10T22:08:02.152Z,100847.81
2023-05-10T22:10:28.738Z,100851.81
2023-05-10T22:12:55.267Z,100846.28
2023-05-10T22:15:21.852Z,100840.75
2023-05-10T22:17:48.504Z,100848.38
2023-05-10T22:20:15.504Z,100843.34
2023-05-10T22:22:42.179Z,100839.47
2023-05-10T22:25:08.959Z,100847.88
2023-05-10T22:27:35.599Z,100842.47
2023-05-10T22:30:02.816Z,100853.75
2023-05-10T22:32:29.414Z,100846.22
2023-05-10T22:34:56.371Z,100849.78
2023-05-10T22:37:22.882Z,100850.97
2023-05-10T22:39:49.832Z,100850.88
2023-05-10T22:42:16.611Z,100850.97
2023-05-10T22:44:43.368Z,100847.00
2023-05-10T22:47:09.855Z,100853.38
2023-05-10T22:49:36.544Z,100852.28
2023-05-10T22:52:03.096Z,100860.34
2023-05-10T22:54:29.652Z,100857.69
2023-05-10T22:56:56.514Z,100858.88
2023-05-10T22:59:23.299Z,100856.75
2023-05-10T23:01:49.838Z,100853.75
2023-05-10T23:04:16.503Z,100856.84
2023-05-10T23:06:43.040Z,100869.13
2023-05-10T23:09:09.806Z,100863.81
2023-05-10T23:11:36.536Z,100862.00
2023-05-10T23:14:03.278Z,100866.94
2023-05-10T23:16:30.499Z,100865.03
2023-05-10T23:18:57.158Z,100867.91
2023-05-10T23:21:25.156Z,100865.75
2023-05-10T23:23:51.811Z,100870.25
2023-05-10T23:26:18.377Z,100871.97
2023-05-10T23:28:44.896Z,100873.19
2023-05-10T23:31:11.592Z,100866.44
2023-05-10T23:33:38.161Z,100873.28
2023-05-10T23:36:04.820Z,100862.16
2023-05-10T23:38:31.323Z,100865.09
2023-05-10T23:40:57.972Z,100870.44
2023-05-10T23:43:25.365Z,100868.63
2023-05-10T23:45:53.628Z,100862.50
2023-05-10T23:48:20.158Z,100866.06
2023-05-10T23:50:46.850Z,100867.47
2023-05-10T23:53:13.362Z,100865.22
2023-05-10T23:55:39.915Z,100862.97
2023-05-10T23:58:06.465Z,100859.41
